Impacts TAF Board
For situational awareness. Not to be used for flight planning purposes.
IDs:

KASE - Aspen/Pitkin Cnty, CO, US

Issued at 0531 UTC 27 Feb 2020
Updated at 0812 UTC 27 Feb 2020
Potential Impact None Slight Moderate High
Time0753Z 27/09Z 27/10Z 27/11Z 27/12Z 27/13Z 27/14Z 27/15Z 27/16Z 27/17Z 27/18Z 27/19Z 27/20Z 27/21Z>>
Type OBS PRVL PRVL PRVL PRVL PRVL PRVL PRVL PRVL PRVL PRVL PRVL PRVL PRVL
VIS 10 >6 >6 >6 >6 >6 >6 >6 >6 >6 >6 >6 >6 >6
CIG 75 45 45 45 45 45 45 45 -- -- -- -- -- --
Cover OVC OVC OVC OVC OVC OVC OVC OVC SCT SCT SCT SCT SCT SCT
FltCat VFR VFR VFR VFR VFR VFR VFR VFR VFR VFR VFR VFR VFR VFR
WX -- -- -- -- -- -- -- -- -- -- -- -- -- --
WDir 160 VRB VRB VRB VRB VRB VRB VRB VRB VRB VRB VRB VRB 340
WSpd 3 4 4 4 4 4 4 4 3 3 3 3 3 8
WGst -- -- -- -- -- -- -- -- -- -- -- -- -- --
Raw TAF
KASE 270531Z 2706/2806 VRB03KT P6SM OVC060
  FM270900 VRB04KT P6SM BKN045 OVC060
  FM271600 VRB03KT P6SM FEW045 SCT060
  FM272100 34008KT P6SM FEW060 SCT200
  FM280000 26006KT P6SM FEW070 BKN250


Raw METAR
KASE 270753Z AUTO 16003KT 10SM FEW049 OVC075 M07/M11 A3029 RMK AO2 SLP272 T10721111
KASE 270653Z AUTO 00000KT 10SM OVC070 M07/M11 A3028 RMK AO2 SLP275 T10671111 410221228
KASE 270553Z AUTO 00000KT 10SM FEW048 OVC065 M07/M11 A3030 RMK AO2 SLP290 T10671111 11022 21094 50000

METAR Board
Radar Display
Forecast Discussion
For situational awareness. Not to be used for flight planning purposes.